sensor_id;sensor_type;location;lat;lon;timestamp;P1;durP1;ratioP1;P2;durP2;ratioP2
7841;SDS011;3966;51.052;13.820;2022-08-21T00:00:27;42.58;;;21.85;;
7841;SDS011;3966;51.052;13.820;2022-08-21T00:02:55;39.70;;;22.23;;
7841;SDS011;3966;51.052;13.820;2022-08-21T00:05:26;45.35;;;22.20;;
7841;SDS011;3966;51.052;13.820;2022-08-21T00:07:51;44.03;;;22.95;;
7841;SDS011;3966;51.052;13.820;2022-08-21T00:10:17;48.65;;;24.42;;
7841;SDS011;3966;51.052;13.820;2022-08-21T00:12:43;46.80;;;22.67;;
7841;SDS011;3966;51.052;13.820;2022-08-21T00:15:10;44.45;;;22.60;;
7841;SDS011;3966;51.052;13.820;2022-08-21T00:17:38;49.55;;;24.20;;
7841;SDS011;3966;51.052;13.820;2022-08-21T00:20:05;48.97;;;24.55;;
7841;SDS011;3966;51.052;13.820;2022-08-21T00:22:33;46.47;;;23.67;;
7841;SDS011;3966;51.052;13.820;2022-08-21T00:25:00;42.88;;;22.63;;
7841;SDS011;3966;51.052;13.820;2022-08-21T00:27:27;53.58;;;24.40;;
7841;SDS011;3966;51.052;13.820;2022-08-21T00:29:52;45.20;;;22.85;;
7841;SDS011;3966;51.052;13.820;2022-08-21T00:32:22;50.97;;;25.45;;
7841;SDS011;3966;51.052;13.820;2022-08-21T00:34:50;49.78;;;24.50;;
7841;SDS011;3966;51.052;13.820;2022-08-21T00:37:17;46.53;;;24.17;;
7841;SDS011;3966;51.052;13.820;2022-08-21T00:39:44;47.42;;;24.48;;
7841;SDS011;3966;51.052;13.820;2022-08-21T00:42:10;56.83;;;26.35;;
7841;SDS011;3966;51.052;13.820;2022-08-21T00:44:40;51.40;;;26.15;;
7841;SDS011;3966;51.052;13.820;2022-08-21T00:47:07;57.45;;;27.15;;
7841;SDS011;3966;51.052;13.820;2022-08-21T00:49:33;54.58;;;26.90;;
7841;SDS011;3966;51.052;13.820;2022-08-21T00:51:59;49.58;;;25.83;;
7841;SDS011;3966;51.052;13.820;2022-08-21T00:54:26;54.22;;;26.25;;
7841;SDS011;3966;51.052;13.820;2022-08-21T00:56:55;51.08;;;26.58;;
7841;SDS011;3966;51.052;13.820;2022-08-21T00:59:25;59.42;;;27.88;;
7841;SDS011;3966;51.052;13.820;2022-08-21T01:01:52;57.92;;;28.13;;
7841;SDS011;3966;51.052;13.820;2022-08-21T01:04:18;61.55;;;29.65;;
7841;SDS011;3966;51.052;13.820;2022-08-21T01:06:44;58.90;;;28.27;;
7841;SDS011;3966;51.052;13.820;2022-08-21T01:09:10;60.00;;;28.30;;
7841;SDS011;3966;51.052;13.820;2022-08-21T01:11:36;66.38;;;28.90;;
7841;SDS011;3966;51.052;13.820;2022-08-21T01:14:02;67.03;;;30.15;;
7841;SDS011;3966;51.052;13.820;2022-08-21T01:16:28;59.47;;;29.10;;
7841;SDS011;3966;51.052;13.820;2022-08-21T01:18:54;62.88;;;29.42;;
7841;SDS011;3966;51.052;13.820;2022-08-21T01:21:21;62.92;;;30.20;;
7841;SDS011;3966;51.052;13.820;2022-08-21T01:23:49;56.35;;;28.60;;
7841;SDS011;3966;51.052;13.820;2022-08-21T01:26:18;56.70;;;27.83;;
7841;SDS011;3966;51.052;13.820;2022-08-21T01:28:58;50.50;;;25.33;;
7841;SDS011;3966;51.052;13.820;2022-08-21T01:31:25;42.30;;;21.63;;
7841;SDS011;3966;51.052;13.820;2022-08-21T01:33:53;36.78;;;19.90;;
7841;SDS011;3966;51.052;13.820;2022-08-21T01:36:20;29.10;;;16.83;;
7841;SDS011;3966;51.052;13.820;2022-08-21T01:38:46;26.80;;;15.50;;
7841;SDS011;3966;51.052;13.820;2022-08-21T01:41:12;29.23;;;15.60;;
7841;SDS011;3966;51.052;13.820;2022-08-21T01:43:39;27.67;;;14.32;;
7841;SDS011;3966;51.052;13.820;2022-08-21T01:46:05;22.80;;;13.70;;
7841;SDS011;3966;51.052;13.820;2022-08-21T01:48:31;26.73;;;13.82;;
7841;SDS011;3966;51.052;13.820;2022-08-21T01:50:57;21.50;;;11.85;;
7841;SDS011;3966;51.052;13.820;2022-08-21T01:53:23;24.92;;;13.27;;
7841;SDS011;3966;51.052;13.820;2022-08-21T01:55:48;17.85;;;11.70;;
7841;SDS011;3966;51.052;13.820;2022-08-21T01:58:14;20.17;;;11.25;;
7841;SDS011;3966;51.052;13.820;2022-08-21T02:00:39;16.15;;;10.50;;
7841;SDS011;3966;51.052;13.820;2022-08-21T02:03:05;15.30;;;9.68;;
7841;SDS011;3966;51.052;13.820;2022-08-21T02:05:30;16.35;;;10.23;;
7841;SDS011;3966;51.052;13.820;2022-08-21T02:07:56;18.33;;;10.57;;
7841;SDS011;3966;51.052;13.820;2022-08-21T02:10:23;19.58;;;10.88;;
7841;SDS011;3966;51.052;13.820;2022-08-21T02:12:54;15.95;;;10.63;;
7841;SDS011;3966;51.052;13.820;2022-08-21T02:15:20;18.27;;;11.77;;
7841;SDS011;3966;51.052;13.820;2022-08-21T02:17:51;19.67;;;11.68;;
7841;SDS011;3966;51.052;13.820;2022-08-21T02:20:26;18.58;;;10.57;;
7841;SDS011;3966;51.052;13.820;2022-08-21T02:22:55;19.67;;;10.82;;
7841;SDS011;3966;51.052;13.820;2022-08-21T02:25:21;16.38;;;9.48;;
7841;SDS011;3966;51.052;13.820;2022-08-21T02:27:47;14.77;;;10.32;;
7841;SDS011;3966;51.052;13.820;2022-08-21T02:30:21;15.52;;;8.88;;
7841;SDS011;3966;51.052;13.820;2022-08-21T02:32:49;17.38;;;9.00;;
7841;SDS011;3966;51.052;13.820;2022-08-21T02:35:15;13.48;;;9.13;;
7841;SDS011;3966;51.052;13.820;2022-08-21T02:37:44;11.55;;;8.32;;
7841;SDS011;3966;51.052;13.820;2022-08-21T02:40:14;12.17;;;8.40;;
7841;SDS011;3966;51.052;13.820;2022-08-21T02:42:42;8.45;;;7.03;;
7841;SDS011;3966;51.052;13.820;2022-08-21T02:45:08;10.57;;;8.25;;
7841;SDS011;3966;51.052;13.820;2022-08-21T02:47:35;10.98;;;7.82;;
7841;SDS011;3966;51.052;13.820;2022-08-21T02:50:00;11.10;;;7.70;;
7841;SDS011;3966;51.052;13.820;2022-08-21T02:52:26;11.05;;;7.22;;
7841;SDS011;3966;51.052;13.820;2022-08-21T02:54:51;12.88;;;8.07;;
7841;SDS011;3966;51.052;13.820;2022-08-21T02:57:16;8.25;;;7.15;;
7841;SDS011;3966;51.052;13.820;2022-08-21T02:59:42;11.52;;;8.05;;
7841;SDS011;3966;51.052;13.820;2022-08-21T03:02:07;12.95;;;7.93;;
7841;SDS011;3966;51.052;13.820;2022-08-21T03:04:39;14.63;;;9.02;;
7841;SDS011;3966;51.052;13.820;2022-08-21T03:07:17;17.55;;;9.52;;
7841;SDS011;3966;51.052;13.820;2022-08-21T03:09:43;15.57;;;10.52;;
7841;SDS011;3966;51.052;13.820;2022-08-21T03:12:08;17.23;;;10.70;;
7841;SDS011;3966;51.052;13.820;2022-08-21T03:14:33;16.63;;;10.48;;
7841;SDS011;3966;51.052;13.820;2022-08-21T03:16:59;18.23;;;10.50;;
7841;SDS011;3966;51.052;13.820;2022-08-21T03:19:24;20.73;;;11.40;;
7841;SDS011;3966;51.052;13.820;2022-08-21T03:21:50;17.85;;;11.63;;
7841;SDS011;3966;51.052;13.820;2022-08-21T03:24:15;21.73;;;12.23;;
7841;SDS011;3966;51.052;13.820;2022-08-21T03:26:41;17.73;;;10.65;;
7841;SDS011;3966;51.052;13.820;2022-08-21T03:29:06;18.27;;;12.00;;
7841;SDS011;3966;51.052;13.820;2022-08-21T03:31:32;20.70;;;12.38;;
7841;SDS011;3966;51.052;13.820;2022-08-21T03:33:57;20.98;;;12.77;;
7841;SDS011;3966;51.052;13.820;2022-08-21T03:36:23;22.13;;;12.70;;
7841;SDS011;3966;51.052;13.820;2022-08-21T03:38:49;23.10;;;13.57;;
7841;SDS011;3966;51.052;13.820;2022-08-21T03:41:15;19.52;;;12.85;;
7841;SDS011;3966;51.052;13.820;2022-08-21T03:43:40;20.75;;;11.93;;
7841;SDS011;3966;51.052;13.820;2022-08-21T03:46:06;21.40;;;11.90;;
7841;SDS011;3966;51.052;13.820;2022-08-21T03:48:32;26.08;;;12.75;;
7841;SDS011;3966;51.052;13.820;2022-08-21T03:50:59;21.27;;;12.45;;
7841;SDS011;3966;51.052;13.820;2022-08-21T03:53:25;20.42;;;12.15;;
7841;SDS011;3966;51.052;13.820;2022-08-21T03:55:51;19.10;;;12.30;;
7841;SDS011;3966;51.052;13.820;2022-08-21T03:58:18;23.35;;;12.85;;
7841;SDS011;3966;51.052;13.820;2022-08-21T04:00:46;27.20;;;12.80;;
7841;SDS011;3966;51.052;13.820;2022-08-21T04:03:14;26.45;;;13.48;;
7841;SDS011;3966;51.052;13.820;2022-08-21T04:05:40;25.02;;;12.75;;
7841;SDS011;3966;51.052;13.820;2022-08-21T04:08:06;24.35;;;13.80;;
7841;SDS011;3966;51.052;13.820;2022-08-21T04:10:33;25.08;;;13.80;;
7841;SDS011;3966;51.052;13.820;2022-08-21T04:13:01;23.98;;;13.52;;
7841;SDS011;3966;51.052;13.820;2022-08-21T04:15:28;27.77;;;14.07;;
7841;SDS011;3966;51.052;13.820;2022-08-21T04:17:53;23.23;;;13.25;;
7841;SDS011;3966;51.052;13.820;2022-08-21T04:20:20;21.50;;;11.35;;
7841;SDS011;3966;51.052;13.820;2022-08-21T04:22:47;23.15;;;12.85;;
7841;SDS011;3966;51.052;13.820;2022-08-21T04:25:14;20.00;;;12.18;;
7841;SDS011;3966;51.052;13.820;2022-08-21T04:27:40;20.15;;;12.48;;
7841;SDS011;3966;51.052;13.820;2022-08-21T04:30:06;23.42;;;12.00;;
7841;SDS011;3966;51.052;13.820;2022-08-21T04:32:33;20.65;;;12.80;;
7841;SDS011;3966;51.052;13.820;2022-08-21T04:35:00;21.10;;;12.15;;
7841;SDS011;3966;51.052;13.820;2022-08-21T04:37:28;18.90;;;11.95;;
7841;SDS011;3966;51.052;13.820;2022-08-21T04:39:54;20.80;;;11.73;;
7841;SDS011;3966;51.052;13.820;2022-08-21T04:42:22;20.90;;;11.90;;
7841;SDS011;3966;51.052;13.820;2022-08-21T04:44:48;24.77;;;12.48;;
7841;SDS011;3966;51.052;13.820;2022-08-21T04:47:14;26.92;;;12.25;;
7841;SDS011;3966;51.052;13.820;2022-08-21T04:49:41;20.15;;;11.60;;
7841;SDS011;3966;51.052;13.820;2022-08-21T04:52:06;19.48;;;12.02;;
7841;SDS011;3966;51.052;13.820;2022-08-21T04:54:32;19.55;;;11.32;;
7841;SDS011;3966;51.052;13.820;2022-08-21T04:57:02;19.95;;;12.60;;
7841;SDS011;3966;51.052;13.820;2022-08-21T04:59:36;25.42;;;12.85;;
7841;SDS011;3966;51.052;13.820;2022-08-21T05:02:05;22.92;;;12.02;;
7841;SDS011;3966;51.052;13.820;2022-08-21T05:04:32;20.02;;;11.73;;
7841;SDS011;3966;51.052;13.820;2022-08-21T05:07:02;24.85;;;13.27;;
7841;SDS011;3966;51.052;13.820;2022-08-21T05:09:30;22.15;;;12.75;;
7841;SDS011;3966;51.052;13.820;2022-08-21T05:11:57;20.05;;;12.32;;
7841;SDS011;3966;51.052;13.820;2022-08-21T05:14:23;21.25;;;12.98;;
7841;SDS011;3966;51.052;13.820;2022-08-21T05:16:49;19.08;;;11.93;;
7841;SDS011;3966;51.052;13.820;2022-08-21T05:19:15;22.02;;;11.88;;
7841;SDS011;3966;51.052;13.820;2022-08-21T05:21:41;18.80;;;11.60;;
7841;SDS011;3966;51.052;13.820;2022-08-21T05:24:09;18.80;;;10.98;;
7841;SDS011;3966;51.052;13.820;2022-08-21T05:26:35;18.48;;;11.57;;
7841;SDS011;3966;51.052;13.820;2022-08-21T05:29:01;20.27;;;11.85;;
7841;SDS011;3966;51.052;13.820;2022-08-21T05:31:27;21.80;;;12.15;;
7841;SDS011;3966;51.052;13.820;2022-08-21T05:33:53;15.27;;;10.35;;
7841;SDS011;3966;51.052;13.820;2022-08-21T05:36:19;20.33;;;11.02;;
7841;SDS011;3966;51.052;13.820;2022-08-21T05:38:44;18.02;;;11.15;;
7841;SDS011;3966;51.052;13.820;2022-08-21T05:41:10;19.15;;;11.70;;
7841;SDS011;3966;51.052;13.820;2022-08-21T05:43:36;16.35;;;10.90;;
7841;SDS011;3966;51.052;13.820;2022-08-21T05:46:05;16.67;;;10.00;;
7841;SDS011;3966;51.052;13.820;2022-08-21T05:48:32;15.23;;;10.57;;
7841;SDS011;3966;51.052;13.820;2022-08-21T05:51:04;13.18;;;9.50;;
7841;SDS011;3966;51.052;13.820;2022-08-21T05:53:31;16.65;;;10.35;;
7841;SDS011;3966;51.052;13.820;2022-08-21T05:55:56;16.48;;;10.38;;
7841;SDS011;3966;51.052;13.820;2022-08-21T05:58:22;16.63;;;11.18;;
7841;SDS011;3966;51.052;13.820;2022-08-21T06:00:49;17.02;;;11.32;;
7841;SDS011;3966;51.052;13.820;2022-08-21T06:03:17;18.98;;;11.95;;
7841;SDS011;3966;51.052;13.820;2022-08-21T06:05:47;19.23;;;12.32;;
7841;SDS011;3966;51.052;13.820;2022-08-21T06:08:13;18.50;;;12.00;;
7841;SDS011;3966;51.052;13.820;2022-08-21T06:10:39;19.92;;;12.10;;
7841;SDS011;3966;51.052;13.820;2022-08-21T06:13:05;24.50;;;12.55;;
7841;SDS011;3966;51.052;13.820;2022-08-21T06:15:30;20.13;;;12.05;;
7841;SDS011;3966;51.052;13.820;2022-08-21T06:17:56;22.65;;;12.73;;
7841;SDS011;3966;51.052;13.820;2022-08-21T06:20:22;23.10;;;13.57;;
7841;SDS011;3966;51.052;13.820;2022-08-21T06:22:48;22.92;;;13.15;;
7841;SDS011;3966;51.052;13.820;2022-08-21T06:25:14;27.38;;;15.48;;
7841;SDS011;3966;51.052;13.820;2022-08-21T06:27:39;25.58;;;14.90;;
7841;SDS011;3966;51.052;13.820;2022-08-21T06:30:05;25.92;;;15.70;;
7841;SDS011;3966;51.052;13.820;2022-08-21T06:32:31;31.42;;;16.45;;
7841;SDS011;3966;51.052;13.820;2022-08-21T06:34:57;29.00;;;15.93;;
7841;SDS011;3966;51.052;13.820;2022-08-21T06:37:23;27.40;;;16.00;;
7841;SDS011;3966;51.052;13.820;2022-08-21T06:39:48;30.98;;;15.73;;
7841;SDS011;3966;51.052;13.820;2022-08-21T06:42:14;30.73;;;17.15;;
7841;SDS011;3966;51.052;13.820;2022-08-21T06:44:41;34.10;;;16.98;;
7841;SDS011;3966;51.052;13.820;2022-08-21T06:47:07;27.30;;;16.20;;
7841;SDS011;3966;51.052;13.820;2022-08-21T06:49:33;27.08;;;16.40;;
7841;SDS011;3966;51.052;13.820;2022-08-21T06:51:59;30.08;;;17.17;;
7841;SDS011;3966;51.052;13.820;2022-08-21T06:54:25;28.20;;;16.55;;
7841;SDS011;3966;51.052;13.820;2022-08-21T06:56:50;33.17;;;17.83;;
7841;SDS011;3966;51.052;13.820;2022-08-21T06:59:16;27.73;;;16.58;;
7841;SDS011;3966;51.052;13.820;2022-08-21T07:01:41;28.00;;;16.67;;
7841;SDS011;3966;51.052;13.820;2022-08-21T07:04:07;31.83;;;17.63;;
7841;SDS011;3966;51.052;13.820;2022-08-21T07:06:32;29.98;;;16.98;;
7841;SDS011;3966;51.052;13.820;2022-08-21T07:08:58;32.05;;;18.23;;
7841;SDS011;3966;51.052;13.820;2022-08-21T07:11:24;29.88;;;17.83;;
7841;SDS011;3966;51.052;13.820;2022-08-21T07:13:50;29.20;;;17.95;;
7841;SDS011;3966;51.052;13.820;2022-08-21T07:16:18;29.45;;;18.27;;
7841;SDS011;3966;51.052;13.820;2022-08-21T07:18:44;25.33;;;16.83;;
7841;SDS011;3966;51.052;13.820;2022-08-21T07:21:10;33.08;;;18.40;;
7841;SDS011;3966;51.052;13.820;2022-08-21T07:23:37;27.48;;;17.88;;
7841;SDS011;3966;51.052;13.820;2022-08-21T07:26:08;29.77;;;17.25;;
7841;SDS011;3966;51.052;13.820;2022-08-21T07:28:34;29.38;;;17.65;;
7841;SDS011;3966;51.052;13.820;2022-08-21T07:31:00;27.20;;;17.98;;
7841;SDS011;3966;51.052;13.820;2022-08-21T07:33:27;26.38;;;17.83;;
7841;SDS011;3966;51.052;13.820;2022-08-21T07:35:54;27.20;;;17.52;;
7841;SDS011;3966;51.052;13.820;2022-08-21T07:38:20;29.40;;;17.42;;
7841;SDS011;3966;51.052;13.820;2022-08-21T07:40:46;26.05;;;16.30;;
7841;SDS011;3966;51.052;13.820;2022-08-21T07:43:13;26.52;;;16.13;;
7841;SDS011;3966;51.052;13.820;2022-08-21T07:45:41;24.77;;;16.55;;
7841;SDS011;3966;51.052;13.820;2022-08-21T07:48:07;25.63;;;15.25;;
7841;SDS011;3966;51.052;13.820;2022-08-21T07:50:32;19.80;;;14.65;;
7841;SDS011;3966;51.052;13.820;2022-08-21T07:52:58;18.60;;;13.52;;
7841;SDS011;3966;51.052;13.820;2022-08-21T07:55:23;24.17;;;14.93;;
7841;SDS011;3966;51.052;13.820;2022-08-21T07:57:51;24.27;;;14.25;;
7841;SDS011;3966;51.052;13.820;2022-08-21T08:00:18;22.90;;;15.30;;
7841;SDS011;3966;51.052;13.820;2022-08-21T08:02:46;22.85;;;15.68;;
7841;SDS011;3966;51.052;13.820;2022-08-21T08:05:15;21.90;;;14.77;;
7841;SDS011;3966;51.052;13.820;2022-08-21T08:07:42;20.92;;;15.30;;
7841;SDS011;3966;51.052;13.820;2022-08-21T08:10:08;23.65;;;14.45;;
7841;SDS011;3966;51.052;13.820;2022-08-21T08:12:38;22.63;;;13.70;;
7841;SDS011;3966;51.052;13.820;2022-08-21T08:15:07;26.98;;;13.63;;
7841;SDS011;3966;51.052;13.820;2022-08-21T08:17:36;20.90;;;14.52;;
7841;SDS011;3966;51.052;13.820;2022-08-21T08:20:02;19.08;;;13.40;;
7841;SDS011;3966;51.052;13.820;2022-08-21T08:22:28;19.90;;;14.07;;
7841;SDS011;3966;51.052;13.820;2022-08-21T08:24:54;24.80;;;15.20;;
7841;SDS011;3966;51.052;13.820;2022-08-21T08:27:20;21.20;;;15.20;;
7841;SDS011;3966;51.052;13.820;2022-08-21T08:29:46;19.15;;;13.80;;
7841;SDS011;3966;51.052;13.820;2022-08-21T08:32:12;17.70;;;13.75;;
7841;SDS011;3966;51.052;13.820;2022-08-21T08:34:41;21.75;;;13.75;;
7841;SDS011;3966;51.052;13.820;2022-08-21T08:37:08;20.33;;;12.57;;
7841;SDS011;3966;51.052;13.820;2022-08-21T08:39:34;18.58;;;12.70;;
7841;SDS011;3966;51.052;13.820;2022-08-21T08:42:07;18.00;;;13.07;;
7841;SDS011;3966;51.052;13.820;2022-08-21T08:44:38;18.88;;;11.73;;
7841;SDS011;3966;51.052;13.820;2022-08-21T08:47:08;16.92;;;12.07;;
7841;SDS011;3966;51.052;13.820;2022-08-21T08:49:40;17.08;;;11.43;;
7841;SDS011;3966;51.052;13.820;2022-08-21T08:52:20;14.13;;;10.60;;
7841;SDS011;3966;51.052;13.820;2022-08-21T08:55:07;15.10;;;9.95;;
7841;SDS011;3966;51.052;13.820;2022-08-21T08:57:48;12.55;;;9.95;;
7841;SDS011;3966;51.052;13.820;2022-08-21T09:00:15;12.25;;;9.05;;
7841;SDS011;3966;51.052;13.820;2022-08-21T09:02:44;11.25;;;9.95;;
7841;SDS011;3966;51.052;13.820;2022-08-21T09:05:16;14.93;;;10.98;;
7841;SDS011;3966;51.052;13.820;2022-08-21T09:08:14;15.75;;;11.18;;
7841;SDS011;3966;51.052;13.820;2022-08-21T09:10:57;16.17;;;10.25;;
7841;SDS011;3966;51.052;13.820;2022-08-21T09:13:37;15.07;;;10.65;;
7841;SDS011;3966;51.052;13.820;2022-08-21T09:22:34;11.90;;;9.25;;
7841;SDS011;3966;51.052;13.820;2022-08-21T09:27:43;13.43;;;8.25;;
7841;SDS011;3966;51.052;13.820;2022-08-21T09:30:09;9.20;;;7.32;;
7841;SDS011;3966;51.052;13.820;2022-08-21T09:32:36;7.85;;;5.95;;
7841;SDS011;3966;51.052;13.820;2022-08-21T09:35:10;6.38;;;4.47;;
7841;SDS011;3966;51.052;13.820;2022-08-21T09:37:50;5.15;;;4.65;;
7841;SDS011;3966;51.052;13.820;2022-08-21T09:40:23;8.80;;;4.65;;
7841;SDS011;3966;51.052;13.820;2022-08-21T09:42:58;9.75;;;4.97;;
7841;SDS011;3966;51.052;13.820;2022-08-21T09:45:29;7.97;;;4.43;;
7841;SDS011;3966;51.052;13.820;2022-08-21T09:47:55;5.15;;;4.00;;
7841;SDS011;3966;51.052;13.820;2022-08-21T09:50:32;8.18;;;4.38;;
7841;SDS011;3966;51.052;13.820;2022-08-21T09:52:58;7.00;;;3.72;;
7841;SDS011;3966;51.052;13.820;2022-08-21T09:55:32;7.65;;;4.18;;
7841;SDS011;3966;51.052;13.820;2022-08-21T09:58:29;5.35;;;3.55;;
7841;SDS011;3966;51.052;13.820;2022-08-21T10:00:58;9.00;;;4.30;;
7841;SDS011;3966;51.052;13.820;2022-08-21T10:03:25;5.28;;;3.70;;
7841;SDS011;3966;51.052;13.820;2022-08-21T10:08:23;4.72;;;3.30;;
7841;SDS011;3966;51.052;13.820;2022-08-21T10:10:56;4.47;;;3.30;;
7841;SDS011;3966;51.052;13.820;2022-08-21T10:13:32;4.85;;;3.25;;
7841;SDS011;3966;51.052;13.820;2022-08-21T10:16:17;7.05;;;3.55;;
7841;SDS011;3966;51.052;13.820;2022-08-21T10:19:02;13.25;;;3.33;;
7841;SDS011;3966;51.052;13.820;2022-08-21T10:24:27;3.63;;;2.83;;
7841;SDS011;3966;51.052;13.820;2022-08-21T10:30:13;5.45;;;2.95;;
7841;SDS011;3966;51.052;13.820;2022-08-21T10:40:21;4.85;;;2.50;;
7841;SDS011;3966;51.052;13.820;2022-08-21T10:46:26;6.65;;;2.50;;
7841;SDS011;3966;51.052;13.820;2022-08-21T10:49:20;5.28;;;2.55;;
7841;SDS011;3966;51.052;13.820;2022-08-21T10:54:56;4.25;;;2.40;;
7841;SDS011;3966;51.052;13.820;2022-08-21T10:57:38;2.42;;;2.22;;
7841;SDS011;3966;51.052;13.820;2022-08-21T11:00:24;7.82;;;2.20;;
7841;SDS011;3966;51.052;13.820;2022-08-21T11:03:05;3.13;;;2.20;;
7841;SDS011;3966;51.052;13.820;2022-08-21T11:05:34;3.30;;;2.38;;
7841;SDS011;3966;51.052;13.820;2022-08-21T11:08:24;9.07;;;2.40;;
7841;SDS011;3966;51.052;13.820;2022-08-21T11:13:42;3.83;;;2.40;;
7841;SDS011;3966;51.052;13.820;2022-08-21T11:18:58;9.67;;;2.40;;
7841;SDS011;3966;51.052;13.820;2022-08-21T11:21:44;5.10;;;2.10;;
7841;SDS011;3966;51.052;13.820;2022-08-21T11:24:50;6.40;;;2.20;;
7841;SDS011;3966;51.052;13.820;2022-08-21T11:27:45;4.78;;;2.00;;
7841;SDS011;3966;51.052;13.820;2022-08-21T11:30:16;3.67;;;1.85;;
7841;SDS011;3966;51.052;13.820;2022-08-21T11:35:33;2.85;;;1.50;;
7841;SDS011;3966;51.052;13.820;2022-08-21T11:46:12;4.80;;;1.58;;
7841;SDS011;3966;51.052;13.820;2022-08-21T11:51:48;4.55;;;1.60;;
7841;SDS011;3966;51.052;13.820;2022-08-21T11:56:59;6.88;;;1.63;;
7841;SDS011;3966;51.052;13.820;2022-08-21T12:02:18;8.52;;;1.60;;
7841;SDS011;3966;51.052;13.820;2022-08-21T12:04:52;3.03;;;1.52;;
7841;SDS011;3966;51.052;13.820;2022-08-21T12:07:34;2.33;;;1.38;;
7841;SDS011;3966;51.052;13.820;2022-08-21T12:10:07;5.97;;;1.52;;
7841;SDS011;3966;51.052;13.820;2022-08-21T12:12:42;3.88;;;1.35;;
7841;SDS011;3966;51.052;13.820;2022-08-21T12:25:47;4.32;;;1.10;;
7841;SDS011;3966;51.052;13.820;2022-08-21T12:28:32;3.88;;;1.27;;
7841;SDS011;3966;51.052;13.820;2022-08-21T12:30:59;5.20;;;1.52;;
7841;SDS011;3966;51.052;13.820;2022-08-21T12:33:37;4.35;;;1.40;;
7841;SDS011;3966;51.052;13.820;2022-08-21T12:36:15;1.50;;;1.08;;
7841;SDS011;3966;51.052;13.820;2022-08-21T12:38:50;3.40;;;1.33;;
7841;SDS011;3966;51.052;13.820;2022-08-21T12:41:24;1.55;;;1.00;;
7841;SDS011;3966;51.052;13.820;2022-08-21T12:44:08;4.80;;;1.30;;
7841;SDS011;3966;51.052;13.820;2022-08-21T12:46:43;3.33;;;1.10;;
7841;SDS011;3966;51.052;13.820;2022-08-21T12:52:02;3.40;;;1.00;;
7841;SDS011;3966;51.052;13.820;2022-08-21T12:54:45;7.18;;;1.20;;
7841;SDS011;3966;51.052;13.820;2022-08-21T12:57:21;2.70;;;1.10;;
7841;SDS011;3966;51.052;13.820;2022-08-21T12:59:53;1.77;;;0.90;;
7841;SDS011;3966;51.052;13.820;2022-08-21T13:02:22;2.50;;;1.17;;
7841;SDS011;3966;51.052;13.820;2022-08-21T13:04:51;5.05;;;1.05;;
7841;SDS011;3966;51.052;13.820;2022-08-21T13:07:28;1.50;;;1.00;;
7841;SDS011;3966;51.052;13.820;2022-08-21T13:10:02;4.25;;;0.90;;
7841;SDS011;3966;51.052;13.820;2022-08-21T13:12:30;2.67;;;0.80;;
7841;SDS011;3966;51.052;13.820;2022-08-21T13:14:58;6.55;;;1.23;;
7841;SDS011;3966;51.052;13.820;2022-08-21T13:17:26;2.30;;;1.27;;
7841;SDS011;3966;51.052;13.820;2022-08-21T13:19:58;3.50;;;0.90;;
7841;SDS011;3966;51.052;13.820;2022-08-21T13:22:39;7.38;;;1.23;;
7841;SDS011;3966;51.052;13.820;2022-08-21T13:25:15;6.80;;;1.17;;
7841;SDS011;3966;51.052;13.820;2022-08-21T13:27:43;1.50;;;1.20;;
7841;SDS011;3966;51.052;13.820;2022-08-21T13:30:21;4.78;;;1.30;;
7841;SDS011;3966;51.052;13.820;2022-08-21T13:32:48;2.20;;;1.00;;
7841;SDS011;3966;51.052;13.820;2022-08-21T13:35:17;4.28;;;1.40;;
7841;SDS011;3966;51.052;13.820;2022-08-21T13:37:46;3.83;;;1.00;;
7841;SDS011;3966;51.052;13.820;2022-08-21T13:40:20;2.78;;;1.17;;
7841;SDS011;3966;51.052;13.820;2022-08-21T13:42:56;2.15;;;1.10;;
7841;SDS011;3966;51.052;13.820;2022-08-21T13:45:24;3.10;;;1.40;;
7841;SDS011;3966;51.052;13.820;2022-08-21T13:47:52;2.65;;;1.23;;
7841;SDS011;3966;51.052;13.820;2022-08-21T13:50:19;6.88;;;1.00;;
7841;SDS011;3966;51.052;13.820;2022-08-21T13:52:55;4.90;;;1.30;;
7841;SDS011;3966;51.052;13.820;2022-08-21T13:55:33;4.05;;;1.27;;
7841;SDS011;3966;51.052;13.820;2022-08-21T13:58:06;3.35;;;1.20;;
7841;SDS011;3966;51.052;13.820;2022-08-21T14:00:34;5.18;;;1.00;;
7841;SDS011;3966;51.052;13.820;2022-08-21T14:03:08;2.13;;;0.90;;
7841;SDS011;3966;51.052;13.820;2022-08-21T14:05:37;1.25;;;1.10;;
7841;SDS011;3966;51.052;13.820;2022-08-21T14:08:11;3.67;;;1.08;;
7841;SDS011;3966;51.052;13.820;2022-08-21T14:10:49;9.15;;;1.20;;
7841;SDS011;3966;51.052;13.820;2022-08-21T14:14:00;3.13;;;1.00;;
7841;SDS011;3966;51.052;13.820;2022-08-21T14:16:11;4.60;;;1.20;;
7841;SDS011;3966;51.052;13.820;2022-08-21T14:18:44;2.95;;;1.10;;
7841;SDS011;3966;51.052;13.820;2022-08-21T14:21:22;2.42;;;1.15;;
7841;SDS011;3966;51.052;13.820;2022-08-21T14:24:02;2.65;;;1.00;;
7841;SDS011;3966;51.052;13.820;2022-08-21T14:26:36;2.97;;;1.20;;
7841;SDS011;3966;51.052;13.820;2022-08-21T14:29:33;1.98;;;1.35;;
7841;SDS011;3966;51.052;13.820;2022-08-21T14:32:07;7.65;;;1.40;;
7841;SDS011;3966;51.052;13.820;2022-08-21T14:34:55;1.13;;;1.02;;
7841;SDS011;3966;51.052;13.820;2022-08-21T14:37:22;3.25;;;1.30;;
7841;SDS011;3966;51.052;13.820;2022-08-21T14:39:48;2.17;;;1.10;;
7841;SDS011;3966;51.052;13.820;2022-08-21T14:42:14;1.10;;;0.90;;
7841;SDS011;3966;51.052;13.820;2022-08-21T14:44:41;7.80;;;1.00;;
7841;SDS011;3966;51.052;13.820;2022-08-21T14:47:07;3.85;;;1.30;;
7841;SDS011;3966;51.052;13.820;2022-08-21T14:49:33;2.70;;;1.08;;
7841;SDS011;3966;51.052;13.820;2022-08-21T14:51:59;4.05;;;0.95;;
7841;SDS011;3966;51.052;13.820;2022-08-21T14:54:25;3.88;;;1.05;;
7841;SDS011;3966;51.052;13.820;2022-08-21T14:56:52;3.72;;;1.10;;
7841;SDS011;3966;51.052;13.820;2022-08-21T14:59:19;2.20;;;1.17;;
7841;SDS011;3966;51.052;13.820;2022-08-21T15:01:45;4.15;;;1.00;;
7841;SDS011;3966;51.052;13.820;2022-08-21T15:04:11;1.70;;;1.00;;
7841;SDS011;3966;51.052;13.820;2022-08-21T15:06:36;3.20;;;1.15;;
7841;SDS011;3966;51.052;13.820;2022-08-21T15:09:02;7.45;;;1.27;;
7841;SDS011;3966;51.052;13.820;2022-08-21T15:11:29;2.50;;;1.10;;
7841;SDS011;3966;51.052;13.820;2022-08-21T15:13:57;4.07;;;1.50;;
7841;SDS011;3966;51.052;13.820;2022-08-21T15:16:26;4.20;;;1.20;;
7841;SDS011;3966;51.052;13.820;2022-08-21T15:18:53;2.50;;;1.13;;
7841;SDS011;3966;51.052;13.820;2022-08-21T15:21:18;6.22;;;1.20;;
7841;SDS011;3966;51.052;13.820;2022-08-21T15:23:44;4.97;;;1.48;;
7841;SDS011;3966;51.052;13.820;2022-08-21T15:26:09;3.35;;;1.15;;
7841;SDS011;3966;51.052;13.820;2022-08-21T15:28:35;1.83;;;1.10;;
7841;SDS011;3966;51.052;13.820;2022-08-21T15:31:02;2.40;;;1.00;;
7841;SDS011;3966;51.052;13.820;2022-08-21T15:33:28;2.45;;;1.08;;
7841;SDS011;3966;51.052;13.820;2022-08-21T15:35:54;1.75;;;0.90;;
7841;SDS011;3966;51.052;13.820;2022-08-21T15:38:19;3.90;;;1.13;;
7841;SDS011;3966;51.052;13.820;2022-08-21T15:40:45;2.97;;;0.90;;
7841;SDS011;3966;51.052;13.820;2022-08-21T15:43:16;5.30;;;1.25;;
7841;SDS011;3966;51.052;13.820;2022-08-21T15:45:49;5.88;;;1.30;;
7841;SDS011;3966;51.052;13.820;2022-08-21T15:48:15;3.05;;;1.20;;
7841;SDS011;3966;51.052;13.820;2022-08-21T15:50:40;3.40;;;1.10;;
7841;SDS011;3966;51.052;13.820;2022-08-21T15:53:06;3.17;;;1.38;;
7841;SDS011;3966;51.052;13.820;2022-08-21T15:55:32;2.65;;;0.90;;
7841;SDS011;3966;51.052;13.820;2022-08-21T15:57:59;2.75;;;1.05;;
7841;SDS011;3966;51.052;13.820;2022-08-21T16:00:24;1.23;;;0.85;;
7841;SDS011;3966;51.052;13.820;2022-08-21T16:02:55;3.03;;;1.20;;
7841;SDS011;3966;51.052;13.820;2022-08-21T16:05:22;4.45;;;1.20;;
7841;SDS011;3966;51.052;13.820;2022-08-21T16:07:48;4.05;;;0.90;;